메인 페이지
METAR-TAF:

METAR-TAF

공항 :

코토카 국제공항

아크라, 가나

위도: 05-36N, 경도: 000-10W, 고도: 68m

현재 날씨관측

예보는 1 시간 5분 전, 02:00시(UTC)에 발표되었습니다.
서남서7kt
온도 25°C
습도 94%
기압 1011 hPa
시정 10km 이상
고도 1000ft 상공 구름 많음
고도 1600ft 상공 흐림

METAR: DGAA 160200Z 24007KT 9999 BKN010 OVC016 25/24 Q1011 NOSIG

시각: 03:05 (03:05 UTC)

예보

예보는 4 시간 5분 전, 23:00시(UTC)에 발표되었습니다.
예보 대상 시간: 16일 00시부터 17일 06시까지 (UTC)
10kt
시정 10km 이상
고도 1000ft 상공 구름 많음
확률 40%
16일 05시부터 16일 09시까지 (UTC)
시정: 8000m
전환 중
16일 11시부터 16일 13시까지 (UTC)
남남서15kt
고도 2000ft 상공 구름 보통
전환 중
16일 23시부터 17일 01시까지 (UTC)
10kt

TAF: DGAA 152300Z 1600/1706 26010KT 9999 BKN010 PROB40 1605/1609 8000 BECMG 1611/1613 20015KT SCT020 BECMG 1623/1701 26010KT

4,000개 이상의 공항 관측 자료 및 예보 (METAR 및 TAF 보고).

지도상에서 검색 가능한 기상관측소가 노란 점과 빨간 점으로 표시되어 있습니다.

기상관측소 명을 보려면 표시 위로 마우스를 이동하세요.

날씨 관측과 예보를 보려면 클릭하세요.

지도 변경 : 확대하려면 엑스 표시가 있는 녹색 버튼, 축소하려면 빼기 표시가 있는 녹색 버튼, 다음 페이지의 지도를 보려면 녹색 화살표를 클릭하세요.


METAR-TAF: